createdAt,value
2018-07-14T00:02:22.500Z,13.21
2018-07-14T00:04:49.425Z,13.37
2018-07-14T00:07:16.370Z,13.33
2018-07-14T00:09:43.333Z,13.41
2018-07-14T00:12:10.264Z,13.55
2018-07-14T00:14:37.220Z,13.53
2018-07-14T00:17:04.535Z,13.58
2018-07-14T00:19:31.477Z,13.54
2018-07-14T00:21:58.408Z,13.59
2018-07-14T00:24:25.363Z,13.63
2018-07-14T00:26:52.289Z,13.65
2018-07-14T00:29:19.204Z,13.69
2018-07-14T00:31:46.177Z,13.73
2018-07-14T00:34:13.095Z,13.75
2018-07-14T00:36:40.066Z,13.83
2018-07-14T00:39:07.024Z,13.81
2018-07-14T00:41:33.961Z,13.84
2018-07-14T00:44:00.901Z,13.93
2018-07-14T00:46:27.873Z,13.92
2018-07-14T00:48:54.812Z,13.97
2018-07-14T00:51:21.760Z,14.01
2018-07-14T00:53:48.713Z,14.01
2018-07-14T00:56:15.657Z,14.02
2018-07-14T00:58:42.580Z,14.01
2018-07-14T01:01:09.491Z,14.12
2018-07-14T01:03:36.421Z,14.16
2018-07-14T01:06:03.353Z,14.18
2018-07-14T01:08:34.173Z,14.18
2018-07-14T01:11:01.129Z,14.28
2018-07-14T01:13:28.077Z,14.29
2018-07-14T01:15:55.022Z,14.32
2018-07-14T01:18:21.982Z,14.36
2018-07-14T01:20:48.880Z,14.35
2018-07-14T01:23:15.794Z,14.35
2018-07-14T01:25:43.336Z,14.36
2018-07-14T01:28:10.264Z,14.38
2018-07-14T01:30:37.183Z,14.34
2018-07-14T01:33:04.205Z,14.38
2018-07-14T01:35:31.111Z,14.41
2018-07-14T01:37:58.029Z,14.43
2018-07-14T01:40:24.938Z,14.53
2018-07-14T01:42:51.866Z,14.49
2018-07-14T01:45:18.772Z,14.47
2018-07-14T01:47:45.696Z,14.49
2018-07-14T01:50:12.604Z,14.48
2018-07-14T01:52:39.533Z,14.49
2018-07-14T01:55:06.452Z,14.52
2018-07-14T01:57:33.364Z,14.49
2018-07-14T02:00:00.351Z,14.54
2018-07-14T02:02:27.282Z,14.53
2018-07-14T02:04:54.203Z,14.53
2018-07-14T02:07:21.136Z,14.57
2018-07-14T02:09:48.058Z,14.54
2018-07-14T02:12:15.007Z,14.59
2018-07-14T02:14:41.937Z,14.56
2018-07-14T02:17:08.905Z,14.53
2018-07-14T02:19:35.825Z,14.58
2018-07-14T02:22:02.779Z,14.62
2018-07-14T02:24:29.701Z,14.64
2018-07-14T02:26:56.639Z,14.60
2018-07-14T02:29:23.577Z,14.67
2018-07-14T02:31:50.515Z,14.70
2018-07-14T02:34:17.506Z,14.70
2018-07-14T02:36:44.466Z,14.70
2018-07-14T02:39:11.880Z,14.73
2018-07-14T02:41:39.057Z,14.77
2018-07-14T02:44:06.207Z,14.78
2018-07-14T02:46:33.445Z,14.80
2018-07-14T02:49:00.389Z,14.81
2018-07-14T02:51:27.318Z,14.83
2018-07-14T02:53:54.959Z,14.82
2018-07-14T02:56:21.945Z,14.77
2018-07-14T02:58:48.872Z,14.77
2018-07-14T03:01:15.798Z,14.89
2018-07-14T03:03:42.756Z,14.87
2018-07-14T03:06:10.537Z,14.84
2018-07-14T03:08:37.488Z,14.90
2018-07-14T03:11:04.423Z,14.87
2018-07-14T03:13:31.357Z,14.89
2018-07-14T03:15:58.290Z,14.90
2018-07-14T03:18:25.225Z,14.91
2018-07-14T03:20:52.181Z,14.88
2018-07-14T03:23:19.100Z,14.85
2018-07-14T03:25:46.005Z,14.90
2018-07-14T03:28:12.896Z,14.86
2018-07-14T03:30:39.797Z,14.95
2018-07-14T03:33:06.679Z,14.86
2018-07-14T03:35:33.568Z,14.91
2018-07-14T03:38:00.478Z,15.03
2018-07-14T03:40:27.364Z,14.96
2018-07-14T03:42:54.261Z,14.97
2018-07-14T03:45:21.175Z,14.89
2018-07-14T03:47:48.076Z,14.95
2018-07-14T03:50:14.980Z,15.06
2018-07-14T03:52:41.897Z,14.96
2018-07-14T03:55:08.800Z,14.94
2018-07-14T03:57:35.729Z,14.94
2018-07-14T04:00:02.740Z,14.98
2018-07-14T04:02:29.643Z,14.95
2018-07-14T04:04:56.560Z,14.91
2018-07-14T04:07:23.461Z,15.01
2018-07-14T04:09:50.360Z,14.93
2018-07-14T04:12:17.245Z,14.99
2018-07-14T04:14:44.183Z,14.99
2018-07-14T04:17:11.101Z,15.08
2018-07-14T04:19:38.025Z,15.14
2018-07-14T04:22:04.956Z,15.17
2018-07-14T04:24:31.884Z,15.21
2018-07-14T04:26:58.777Z,15.26
2018-07-14T04:29:25.676Z,15.08
2018-07-14T04:31:52.574Z,15.15
2018-07-14T04:34:19.491Z,15.19
2018-07-14T04:36:46.400Z,15.19
2018-07-14T04:39:13.308Z,15.25
2018-07-14T04:41:40.205Z,15.37
2018-07-14T04:44:07.120Z,15.25
2018-07-14T04:46:34.009Z,15.21
2018-07-14T04:49:01.016Z,15.40
2018-07-14T04:51:27.933Z,15.48
2018-07-14T04:53:54.853Z,15.57
2018-07-14T04:56:21.765Z,15.59
2018-07-14T04:58:48.700Z,15.67
2018-07-14T05:01:15.609Z,15.58
2018-07-14T05:03:42.537Z,15.69
2018-07-14T05:06:09.468Z,15.64
2018-07-14T05:08:36.396Z,15.86
2018-07-14T05:11:03.331Z,15.75
2018-07-14T05:13:30.244Z,15.72
2018-07-14T05:15:57.166Z,15.68
2018-07-14T05:18:24.093Z,15.67
2018-07-14T05:20:51.037Z,15.64
2018-07-14T05:23:17.932Z,15.54
2018-07-14T05:25:44.853Z,15.55
2018-07-14T05:28:11.796Z,15.57
2018-07-14T05:30:38.713Z,15.59
2018-07-14T05:33:05.673Z,15.60
2018-07-14T05:35:32.993Z,15.48
2018-07-14T05:38:00.009Z,15.50
2018-07-14T05:40:26.989Z,15.48
2018-07-14T05:42:53.895Z,15.54
2018-07-14T05:45:20.835Z,15.37
2018-07-14T05:47:47.730Z,15.19
2018-07-14T05:50:14.648Z,15.20
2018-07-14T05:52:41.547Z,15.19
2018-07-14T05:55:08.495Z,15.19
2018-07-14T05:57:35.408Z,15.21
2018-07-14T06:00:02.378Z,15.13
2018-07-14T06:02:29.277Z,15.10
2018-07-14T06:04:56.173Z,15.12
2018-07-14T06:07:23.048Z,15.17
2018-07-14T06:09:49.992Z,15.09
2018-07-14T06:12:16.880Z,15.18
2018-07-14T06:14:43.772Z,15.24
2018-07-14T06:17:10.654Z,15.29
2018-07-14T06:19:37.706Z,15.34
2018-07-14T06:22:04.646Z,15.51
2018-07-14T06:24:31.536Z,15.47
2018-07-14T06:26:58.440Z,15.65
2018-07-14T06:29:25.352Z,15.58
2018-07-14T06:31:52.254Z,15.68
2018-07-14T06:34:19.133Z,15.88
2018-07-14T06:36:46.041Z,15.93
2018-07-14T06:39:12.960Z,16.19
2018-07-14T06:41:39.845Z,16.04
2018-07-14T06:44:06.737Z,16.06
2018-07-14T06:46:33.672Z,16.12
2018-07-14T06:49:00.584Z,16.18
2018-07-14T06:51:27.515Z,16.07
2018-07-14T06:53:54.424Z,16.29
2018-07-14T06:56:21.329Z,16.54
2018-07-14T06:58:48.261Z,16.46
2018-07-14T07:01:15.165Z,16.33
2018-07-14T07:03:42.044Z,16.39
2018-07-14T07:06:08.976Z,16.20
2018-07-14T07:08:35.887Z,15.98
2018-07-14T07:11:02.792Z,15.96
2018-07-14T07:13:29.705Z,15.86
2018-07-14T07:15:56.595Z,15.77
2018-07-14T07:18:23.500Z,15.44
2018-07-14T07:20:50.412Z,15.37
2018-07-14T07:23:17.324Z,15.24
2018-07-14T07:25:44.248Z,15.22
2018-07-14T07:28:11.124Z,15.19
2018-07-14T07:30:38.036Z,15.13
2018-07-14T07:33:05.010Z,14.94
2018-07-14T07:35:31.942Z,14.97
2018-07-14T07:37:58.860Z,15.11
2018-07-14T07:40:25.745Z,15.26
2018-07-14T07:42:52.628Z,15.13
2018-07-14T07:45:19.493Z,15.23
2018-07-14T07:47:46.411Z,15.31
2018-07-14T07:50:13.284Z,15.29
2018-07-14T07:52:40.215Z,15.24
2018-07-14T07:55:07.109Z,15.37
2018-07-14T07:57:33.997Z,15.44
2018-07-14T08:00:00.931Z,15.10
2018-07-14T08:02:27.852Z,15.09
2018-07-14T08:04:54.762Z,15.14
2018-07-14T08:07:21.692Z,15.31
2018-07-14T08:09:48.601Z,15.65
2018-07-14T08:12:15.517Z,15.49
2018-07-14T08:14:42.412Z,15.68
2018-07-14T08:17:09.320Z,16.18
2018-07-14T08:19:36.216Z,15.66
2018-07-14T08:22:03.168Z,15.76
2018-07-14T08:24:30.101Z,16.24
2018-07-14T08:26:57.038Z,16.75
2018-07-14T08:29:23.953Z,16.88
2018-07-14T08:31:50.937Z,16.78
2018-07-14T08:34:17.836Z,17.41
2018-07-14T08:36:44.777Z,17.35
2018-07-14T08:39:11.726Z,16.93
2018-07-14T08:41:38.645Z,17.04
2018-07-14T08:44:05.590Z,17.05
2018-07-14T08:46:32.517Z,17.37
2018-07-14T08:48:59.482Z,17.39
2018-07-14T08:51:26.550Z,17.29
2018-07-14T08:53:53.488Z,17.48
2018-07-14T08:56:20.405Z,18.55
2018-07-14T08:58:47.341Z,18.39
2018-07-14T09:01:14.273Z,18.98
2018-07-14T09:03:41.212Z,17.96
2018-07-14T09:06:08.148Z,18.31
2018-07-14T09:08:35.089Z,18.37
2018-07-14T09:11:02.000Z,17.87
2018-07-14T09:13:28.975Z,18.48
2018-07-14T09:15:55.935Z,19.17
2018-07-14T09:18:22.841Z,19.28
2018-07-14T09:20:49.764Z,19.12
2018-07-14T09:23:16.683Z,18.85
2018-07-14T09:25:43.593Z,18.79
2018-07-14T09:28:10.521Z,18.56
2018-07-14T09:30:37.497Z,17.98
2018-07-14T09:33:04.460Z,17.96
2018-07-14T09:35:31.364Z,17.81
2018-07-14T09:37:58.346Z,17.81
2018-07-14T09:40:25.193Z,17.50
2018-07-14T09:42:52.104Z,17.23
2018-07-14T09:45:19.032Z,17.07
2018-07-14T09:47:46.021Z,17.09
2018-07-14T09:50:12.963Z,17.07
2018-07-14T09:52:39.931Z,17.04
2018-07-14T09:55:06.908Z,17.07
2018-07-14T09:57:33.833Z,17.16
2018-07-14T10:00:00.764Z,17.10
2018-07-14T10:02:27.673Z,17.13
2018-07-14T10:04:54.573Z,17.22
2018-07-14T10:07:21.505Z,17.27
2018-07-14T10:09:48.440Z,17.21
2018-07-14T10:12:15.369Z,17.50
2018-07-14T10:14:42.278Z,17.46
2018-07-14T10:17:09.267Z,17.78
2018-07-14T10:19:36.223Z,17.79
2018-07-14T10:22:03.178Z,18.13
2018-07-14T10:24:30.144Z,18.41
2018-07-14T10:26:57.054Z,18.39
2018-07-14T10:29:24.074Z,18.49
2018-07-14T10:31:50.953Z,18.62
2018-07-14T10:34:17.922Z,18.75
2018-07-14T10:36:44.858Z,18.29
2018-07-14T10:39:11.825Z,18.15
2018-07-14T10:41:38.765Z,18.55
2018-07-14T10:44:05.820Z,18.62
2018-07-14T10:46:32.800Z,18.80
2018-07-14T10:48:59.945Z,18.82
2018-07-14T10:51:26.937Z,18.85
2018-07-14T10:53:53.864Z,19.17
2018-07-14T10:56:20.785Z,19.34
2018-07-14T10:58:47.785Z,19.13
2018-07-14T11:01:14.736Z,18.86
2018-07-14T11:03:41.684Z,19.09
2018-07-14T11:06:08.636Z,18.65
2018-07-14T11:08:35.565Z,19.42
2018-07-14T11:11:09.285Z,19.51
2018-07-14T11:13:36.249Z,19.17
2018-07-14T11:16:03.197Z,19.34
2018-07-14T11:18:30.148Z,19.45
2018-07-14T11:20:57.081Z,19.67
2018-07-14T11:23:24.031Z,19.80
2018-07-14T11:25:50.997Z,19.77
2018-07-14T11:28:17.966Z,19.73
2018-07-14T11:30:44.938Z,19.59
2018-07-14T11:33:11.890Z,19.75
2018-07-14T11:35:38.825Z,20.16
2018-07-14T11:38:05.749Z,20.56
2018-07-14T11:40:32.728Z,20.60
2018-07-14T11:43:00.186Z,19.87
2018-07-14T11:45:27.155Z,19.86
2018-07-14T11:47:54.125Z,19.64
2018-07-14T11:50:21.041Z,19.25
2018-07-14T11:52:48.024Z,19.60
2018-07-14T11:55:14.997Z,19.34
2018-07-14T11:57:41.938Z,19.40
2018-07-14T12:00:08.930Z,19.59
2018-07-14T12:02:35.876Z,19.92
2018-07-14T12:05:02.848Z,19.79
2018-07-14T12:07:29.768Z,19.54
2018-07-14T12:09:56.697Z,19.59
2018-07-14T12:12:23.652Z,19.73
2018-07-14T12:14:50.604Z,20.22
2018-07-14T12:17:17.547Z,19.97
2018-07-14T12:19:44.485Z,19.61
2018-07-14T12:22:11.437Z,19.47
2018-07-14T12:24:38.337Z,19.35
2018-07-14T12:27:05.270Z,19.29
2018-07-14T12:29:32.197Z,19.43
2018-07-14T12:31:59.128Z,19.67
2018-07-14T12:34:26.070Z,19.41
2018-07-14T12:36:53.037Z,19.84
2018-07-14T12:39:19.957Z,19.54
2018-07-14T12:41:46.857Z,19.37
2018-07-14T12:44:13.770Z,19.19
2018-07-14T12:46:40.728Z,19.16
2018-07-14T12:49:09.884Z,18.97
2018-07-14T12:51:36.828Z,18.97
2018-07-14T12:54:03.825Z,18.86
2018-07-14T12:56:30.754Z,19.23
2018-07-14T12:58:57.697Z,19.45
2018-07-14T13:01:24.649Z,19.51
2018-07-14T13:03:51.580Z,19.83
2018-07-14T13:06:18.525Z,19.73
2018-07-14T13:08:45.417Z,20.05
2018-07-14T13:11:12.340Z,19.83
2018-07-14T13:13:39.252Z,19.85
2018-07-14T13:16:06.164Z,20.04
2018-07-14T13:18:33.053Z,20.71
2018-07-14T13:20:59.979Z,20.65
2018-07-14T13:23:26.884Z,20.17
2018-07-14T13:25:53.815Z,20.30
2018-07-14T13:28:20.707Z,20.32
2018-07-14T13:30:47.669Z,20.10
2018-07-14T13:33:14.567Z,20.26
2018-07-14T13:35:41.477Z,20.11
2018-07-14T13:38:08.735Z,20.60
2018-07-14T13:40:35.657Z,20.65
2018-07-14T13:43:02.577Z,20.55
2018-07-14T13:45:36.520Z,20.98
2018-07-14T13:48:04.883Z,20.64
2018-07-14T13:50:34.045Z,20.99
2018-07-14T13:53:00.985Z,20.61
2018-07-14T13:55:27.936Z,20.77
2018-07-14T13:57:58.022Z,21.32
2018-07-14T14:00:24.972Z,21.20
2018-07-14T14:02:52.049Z,21.05
2018-07-14T14:05:18.972Z,21.05
2018-07-14T14:07:45.889Z,20.87
2018-07-14T14:10:12.828Z,20.35
2018-07-14T14:12:39.716Z,20.39
2018-07-14T14:15:06.721Z,20.20
2018-07-14T14:17:33.645Z,20.37
2018-07-14T14:20:00.648Z,20.38
2018-07-14T14:22:27.703Z,20.93
2018-07-14T14:24:54.873Z,20.74
2018-07-14T14:27:22.008Z,20.57
2018-07-14T14:29:48.960Z,20.28
2018-07-14T14:32:15.926Z,20.35
2018-07-14T14:34:42.924Z,20.11
2018-07-14T14:37:09.986Z,20.52
2018-07-14T14:39:37.033Z,20.02
2018-07-14T14:42:03.968Z,20.22
2018-07-14T14:44:30.904Z,20.38
2018-07-14T14:46:57.863Z,20.57
2018-07-14T14:49:24.792Z,20.77
2018-07-14T14:51:51.725Z,20.41
2018-07-14T14:54:18.814Z,20.75
2018-07-14T14:56:45.752Z,20.25
2018-07-14T14:59:15.893Z,20.34
2018-07-14T15:01:43.598Z,20.12
2018-07-14T15:04:11.467Z,20.39
2018-07-14T15:06:40.877Z,20.48
2018-07-14T15:09:07.932Z,20.66
2018-07-14T15:11:35.214Z,20.58
2018-07-14T15:14:02.992Z,21.12
2018-07-14T15:16:30.165Z,20.57
2018-07-14T15:18:57.161Z,20.24
2018-07-14T15:21:24.097Z,20.52
2018-07-14T15:23:51.018Z,20.50
2018-07-14T15:26:18.049Z,20.56
2018-07-14T15:28:45.145Z,20.55
2018-07-14T15:31:12.112Z,20.39
2018-07-14T15:33:39.017Z,20.09
2018-07-14T15:36:05.930Z,20.48
2018-07-14T15:38:32.955Z,20.55
2018-07-14T15:41:00.093Z,20.42
2018-07-14T15:43:27.044Z,20.20
2018-07-14T15:45:53.971Z,20.27
2018-07-14T15:48:20.916Z,20.20
2018-07-14T15:50:47.868Z,20.20
2018-07-14T15:53:14.805Z,19.98
2018-07-14T15:55:41.787Z,20.06
2018-07-14T15:58:08.709Z,19.99
2018-07-14T16:00:35.658Z,20.20
2018-07-14T16:03:02.596Z,20.15
2018-07-14T16:05:29.528Z,19.91
2018-07-14T16:07:56.511Z,20.11
2018-07-14T16:10:23.383Z,20.37
2018-07-14T16:12:50.288Z,20.22
2018-07-14T16:15:17.234Z,19.90
2018-07-14T16:17:44.152Z,19.93
2018-07-14T16:20:11.076Z,19.88
2018-07-14T16:22:38.034Z,19.69
2018-07-14T16:25:04.972Z,19.41
2018-07-14T16:27:31.900Z,19.64
2018-07-14T16:29:58.812Z,19.64
2018-07-14T16:32:25.747Z,19.73
2018-07-14T16:34:52.657Z,19.49
2018-07-14T16:37:19.593Z,19.48
2018-07-14T16:39:46.520Z,19.41
2018-07-14T16:42:13.481Z,19.37
2018-07-14T16:44:40.425Z,19.67
2018-07-14T16:47:07.356Z,19.59
2018-07-14T16:49:34.261Z,19.43
2018-07-14T16:52:01.234Z,19.43
2018-07-14T16:54:28.179Z,19.49
2018-07-14T16:56:55.100Z,19.57
2018-07-14T16:59:22.064Z,19.63
2018-07-14T17:01:49.020Z,19.63
2018-07-14T17:04:15.928Z,19.33
2018-07-14T17:06:42.848Z,19.40
2018-07-14T17:09:10.383Z,19.69
2018-07-14T17:11:37.311Z,19.61
2018-07-14T17:14:04.512Z,19.48
2018-07-14T17:16:31.472Z,19.44
2018-07-14T17:18:58.405Z,19.40
2018-07-14T17:21:26.174Z,19.30
2018-07-14T17:23:53.089Z,19.38
2018-07-14T17:26:20.159Z,19.47
2018-07-14T17:28:47.146Z,19.67
2018-07-14T17:31:14.219Z,19.78
2018-07-14T17:33:41.139Z,19.90
2018-07-14T17:36:08.061Z,19.77
2018-07-14T17:38:34.963Z,19.94
2018-07-14T17:41:02.017Z,20.14
2018-07-14T17:43:28.918Z,20.17
2018-07-14T17:45:55.808Z,20.08
2018-07-14T17:48:22.712Z,19.69
2018-07-14T17:50:49.730Z,19.52
2018-07-14T17:53:16.765Z,19.19
2018-07-14T17:55:43.780Z,19.24
2018-07-14T17:58:10.792Z,19.14
2018-07-14T18:00:37.897Z,19.13
2018-07-14T18:03:04.905Z,19.23
2018-07-14T18:05:31.806Z,19.01
2018-07-14T18:07:58.809Z,19.19
2018-07-14T18:10:25.720Z,19.09
2018-07-14T18:12:52.636Z,18.98
2018-07-14T18:15:19.568Z,18.88
2018-07-14T18:17:46.509Z,18.86
2018-07-14T18:20:13.469Z,18.89
2018-07-14T18:22:40.402Z,18.86
2018-07-14T18:25:07.376Z,18.66
2018-07-14T18:27:34.292Z,18.63
2018-07-14T18:30:01.230Z,18.46
2018-07-14T18:32:28.185Z,18.37
2018-07-14T18:34:55.132Z,18.34
2018-07-14T18:37:22.101Z,18.30
2018-07-14T18:39:49.012Z,18.25
2018-07-14T18:42:15.957Z,18.16
2018-07-14T18:44:42.902Z,18.14
2018-07-14T18:47:09.904Z,17.96
2018-07-14T18:49:37.300Z,17.86
2018-07-14T18:52:04.266Z,17.76
2018-07-14T18:54:31.214Z,17.74
2018-07-14T18:56:58.136Z,17.70
2018-07-14T18:59:25.125Z,17.63
2018-07-14T19:01:52.096Z,17.60
2018-07-14T19:04:19.024Z,17.61
2018-07-14T19:06:45.937Z,17.51
2018-07-14T19:09:12.961Z,17.43
2018-07-14T19:11:39.832Z,17.33
2018-07-14T19:14:06.773Z,17.33
2018-07-14T19:16:33.713Z,17.27
2018-07-14T19:19:00.675Z,17.20
2018-07-14T19:21:27.608Z,17.10
2018-07-14T19:23:54.586Z,16.99
2018-07-14T19:26:21.576Z,16.99
2018-07-14T19:28:48.479Z,16.94
2018-07-14T19:31:15.393Z,16.89
2018-07-14T19:33:42.352Z,16.86
2018-07-14T19:36:09.340Z,16.70
2018-07-14T19:38:36.333Z,16.57
2018-07-14T19:41:03.247Z,16.45
2018-07-14T19:43:30.192Z,16.41
2018-07-14T19:45:57.139Z,16.37
2018-07-14T19:48:24.077Z,16.34
2018-07-14T19:50:51.032Z,16.29
2018-07-14T19:53:17.965Z,16.22
2018-07-14T19:55:44.977Z,16.11
2018-07-14T19:58:11.857Z,16.14
2018-07-14T20:00:38.741Z,16.04
2018-07-14T20:03:05.773Z,15.95
2018-07-14T20:05:32.729Z,15.93
2018-07-14T20:07:59.657Z,15.84
2018-07-14T20:10:26.570Z,15.83
2018-07-14T20:12:53.459Z,15.73
2018-07-14T20:15:20.380Z,15.72
2018-07-14T20:17:47.289Z,15.60
2018-07-14T20:20:14.193Z,15.57
2018-07-14T20:22:41.081Z,15.53
2018-07-14T20:25:07.989Z,15.48
2018-07-14T20:27:35.143Z,15.45
2018-07-14T20:30:02.137Z,15.45
2018-07-14T20:32:29.009Z,15.35
2018-07-14T20:34:55.913Z,15.28
2018-07-14T20:37:22.800Z,15.22
2018-07-14T20:39:49.713Z,15.16
2018-07-14T20:42:16.629Z,15.13
2018-07-14T20:44:43.520Z,15.09
2018-07-14T20:47:10.433Z,15.03
2018-07-14T20:49:37.346Z,14.99
2018-07-14T20:52:04.383Z,14.93
2018-07-14T20:54:31.278Z,14.88
2018-07-14T20:56:58.169Z,14.82
2018-07-14T20:59:25.096Z,14.77
2018-07-14T21:01:52.108Z,14.73
2018-07-14T21:04:19.042Z,14.66
2018-07-14T21:06:45.940Z,14.64
2018-07-14T21:09:12.864Z,14.58
2018-07-14T21:11:39.794Z,14.58
2018-07-14T21:14:06.717Z,14.54
2018-07-14T21:16:33.657Z,14.42
2018-07-14T21:19:00.626Z,14.39
2018-07-14T21:21:27.652Z,14.39
2018-07-14T21:23:54.569Z,14.38
2018-07-14T21:26:21.504Z,14.37
2018-07-14T21:28:48.583Z,14.28
2018-07-14T21:31:15.527Z,14.22
2018-07-14T21:33:42.463Z,14.16
2018-07-14T21:36:09.432Z,14.17
2018-07-14T21:38:36.403Z,14.15
2018-07-14T21:41:03.360Z,14.11
2018-07-14T21:43:30.291Z,14.09
2018-07-14T21:45:57.222Z,14.03
2018-07-14T21:48:24.146Z,14.02
2018-07-14T21:50:51.127Z,13.98
2018-07-14T21:53:18.001Z,13.95
2018-07-14T21:55:44.972Z,13.91
2018-07-14T21:58:11.902Z,13.92
2018-07-14T22:00:44.420Z,13.88
2018-07-14T22:03:11.359Z,13.86
2018-07-14T22:05:38.305Z,13.84
2018-07-14T22:08:05.216Z,13.77
2018-07-14T22:10:32.134Z,13.69
2018-07-14T22:12:59.066Z,13.66
2018-07-14T22:15:26.013Z,13.64
2018-07-14T22:17:53.292Z,13.60
2018-07-14T22:20:20.236Z,13.61
2018-07-14T22:22:47.368Z,13.56
2018-07-14T22:25:14.302Z,13.49
2018-07-14T22:27:41.304Z,13.52
2018-07-14T22:30:08.260Z,13.50
2018-07-14T22:32:35.237Z,13.47
2018-07-14T22:35:02.207Z,13.42
2018-07-14T22:37:29.143Z,13.37
2018-07-14T22:39:56.109Z,13.31
2018-07-14T22:42:23.052Z,13.31
2018-07-14T22:44:49.998Z,13.23
2018-07-14T22:47:16.929Z,13.24
2018-07-14T22:49:43.935Z,13.17
2018-07-14T22:52:10.793Z,13.17
2018-07-14T22:54:37.737Z,13.14
2018-07-14T22:57:04.678Z,13.11
2018-07-14T22:59:31.585Z,13.11
2018-07-14T23:01:58.523Z,13.19
2018-07-14T23:04:25.429Z,13.03
2018-07-14T23:06:52.350Z,13.00
2018-07-14T23:09:19.261Z,12.96
2018-07-14T23:11:46.181Z,12.92
2018-07-14T23:14:13.088Z,12.85
2018-07-14T23:16:39.993Z,12.80
2018-07-14T23:19:06.908Z,12.81
2018-07-14T23:21:33.866Z,12.83
2018-07-14T23:24:00.760Z,12.74
2018-07-14T23:26:27.672Z,12.63
2018-07-14T23:28:54.593Z,12.69
2018-07-14T23:31:21.546Z,12.73
2018-07-14T23:33:48.449Z,12.79
2018-07-14T23:36:15.368Z,12.90
2018-07-14T23:38:42.301Z,12.89
2018-07-14T23:41:09.196Z,12.82
2018-07-14T23:43:36.117Z,12.71
2018-07-14T23:46:03.064Z,12.72
2018-07-14T23:48:29.976Z,12.60
2018-07-14T23:50:56.920Z,12.69
2018-07-14T23:53:23.855Z,12.69
2018-07-14T23:55:50.783Z,12.61
2018-07-14T23:58:17.695Z,12.62
